Time;durP1;ratioP1;P1;durP2;ratioP2;P2;SDS_P1;SDS_P2;PMS_P1;PMS_P2;Temp;Humidity;BMP_temperature;BMP_pressure;BME280_temperature;BME280_humidity;BME280_pressure;Samples;Min_cycle;Max_cycle;Signal;HPM_P1;HPM_P2
2021/12/13 00:01:16;;;;;;;14.83;7.30;;;;;;;2.46;57.72;100427.03;4361961;32;31747;-83
2021/12/13 00:03:56;;;;;;;18.27;7.53;;;;;;;2.55;57.53;100426.19;4364726;32;33638;-84
2021/12/13 00:06:32;;;;;;;17.42;7.75;;;;;;;2.52;57.52;100421.91;4376848;32;34995;-83
2021/12/13 00:09:03;;;;;;;14.60;6.32;;;;;;;2.60;57.36;100419.31;4373454;32;33661;-83
2021/12/13 00:11:34;;;;;;;15.00;6.63;;;;;;;2.82;56.85;100417.38;4364512;32;32122;-83
2021/12/13 00:14:10;;;;;;;14.70;6.82;;;;;;;2.73;57.12;100413.66;4361335;32;32207;-84
2021/12/13 00:16:42;;;;;;;16.62;7.15;;;;;;;2.78;56.59;100411.38;4352666;32;33047;-83
2021/12/13 00:19:22;;;;;;;14.33;6.67;;;;;;;2.59;57.26;100416.78;4352519;32;33842;-83
2021/12/13 00:22:03;;;;;;;13.62;6.40;;;;;;;2.60;57.10;100413.09;4364634;32;33342;-83
2021/12/13 00:24:34;;;;;;;12.73;6.70;;;;;;;2.80;56.64;100414.78;4367558;32;32247;-82
2021/12/13 00:27:09;;;;;;;13.63;6.13;;;;;;;2.78;56.74;100416.78;4368686;32;33052;-84
2021/12/13 00:29:46;;;;;;;14.63;7.40;;;;;;;2.84;56.50;100415.38;4392001;32;33833;-84
2021/12/13 00:32:42;;;;;;;13.60;6.53;;;;;;;2.91;56.12;100411.94;4378295;32;31823;-83
2021/12/13 00:35:24;;;;;;;15.82;6.65;;;;;;;3.12;55.67;100422.66;4378602;32;33554;-83
2021/12/13 00:37:57;;;;;;;14.05;7.03;;;;;;;3.08;55.63;100426.66;4393598;32;33100;-83
2021/12/13 00:40:58;;;;;;;14.10;6.40;;;;;;;3.11;55.64;100428.22;4385605;32;35041;-84
2021/12/13 00:43:38;;;;;;;13.60;6.22;;;;;;;3.17;55.32;100425.81;4382582;32;32739;-84
2021/12/13 00:46:10;;;;;;;12.97;5.97;;;;;;;2.85;56.08;100425.22;4382712;32;33269;-83
2021/12/13 00:48:43;;;;;;;11.75;6.20;;;;;;;2.88;56.08;100424.94;4384246;32;32699;-84
2021/12/13 00:51:17;;;;;;;14.13;6.53;;;;;;;3.04;55.58;100433.37;4379384;32;33391;-84
2021/12/13 00:53:48;;;;;;;12.10;5.93;;;;;;;2.75;56.13;100427.06;4368069;32;31918;-84
2021/12/13 00:56:43;;;;;;;12.63;6.25;;;;;;;2.72;56.53;100433.63;4378476;32;32398;-84
2021/12/13 00:59:20;;;;;;;14.53;7.47;;;;;;;2.77;56.34;100425.06;4368338;32;33044;-84
2021/12/13 01:01:57;;;;;;;14.32;7.03;;;;;;;2.84;56.22;100432.50;4378889;32;34752;-84
2021/12/13 01:04:53;;;;;;;15.15;6.53;;;;;;;2.45;56.63;100431.59;4378673;32;33224;-84
2021/12/13 01:07:33;;;;;;;13.20;6.93;;;;;;;2.50;57.16;100429.31;4382479;32;34412;-84
2021/12/13 01:10:38;;;;;;;13.70;6.13;;;;;;;2.43;57.19;100421.88;4387673;32;34125;-84
2021/12/13 01:13:19;;;;;;;13.10;6.40;;;;;;;2.44;57.15;100427.16;4378619;32;32350;-83
2021/12/13 01:16:24;;;;;;;14.25;6.28;;;;;;;2.59;56.67;100433.06;4380362;32;31760;-83
2021/12/13 01:19:12;;;;;;;15.40;7.27;;;;;;;2.34;57.02;100433.56;4390112;32;33285;-84
2021/12/13 01:21:56;;;;;;;13.48;6.68;;;;;;;2.65;56.55;100427.03;4391692;32;33798;-83
2021/12/13 01:27:37;;;;;;;13.62;6.40;;;;;;;2.50;56.64;100434.75;4353876;32;31686;-84
2021/12/13 01:30:09;;;;;;;13.62;6.47;;;;;;;2.73;56.44;100438.03;4381557;32;34521;-84
2021/12/13 01:32:44;;;;;;;14.25;6.60;;;;;;;2.90;56.04;100444.63;4381472;32;34828;-83
2021/12/13 01:35:22;;;;;;;15.27;6.63;;;;;;;2.90;55.72;100441.91;4381708;32;33858;-84
2021/12/13 01:37:53;;;;;;;12.05;6.32;;;;;;;3.09;55.22;100432.94;4381128;32;33232;-85
2021/12/13 01:40:32;;;;;;;17.08;7.50;;;;;;;2.76;56.14;100436.91;4381099;32;32347;-84
2021/12/13 01:43:10;;;;;;;13.77;6.50;;;;;;;2.61;56.15;100441.88;4369674;32;32461;-85
2021/12/13 01:45:43;;;;;;;15.10;6.37;;;;;;;2.81;55.90;100446.31;4383111;32;32311;-84
2021/12/13 01:48:22;;;;;;;12.27;6.00;;;;;;;3.02;55.38;100440.78;4380046;32;31737;-84
2021/12/13 01:51:04;;;;;;;15.32;6.78;;;;;;;2.97;55.56;100443.91;4381783;32;33748;-84
2021/12/13 01:53:33;;;;;;;13.70;6.00;;;;;;;2.95;55.47;100455.91;4391409;32;33003;-85
2021/12/13 01:56:11;;;;;;;16.55;7.43;;;;;;;3.03;55.18;100449.78;4380408;32;34769;-85
2021/12/13 01:58:42;;;;;;;13.00;6.35;;;;;;;2.77;56.13;100453.03;4380998;32;34484;-84
2021/12/13 02:01:18;;;;;;;13.65;6.60;;;;;;;2.88;55.70;100446.63;4380577;32;33171;-84
2021/12/13 02:04:05;;;;;;;14.60;6.60;;;;;;;2.66;56.17;100442.31;4370530;32;32584;-85
2021/12/13 02:06:37;;;;;;;13.15;6.10;;;;;;;2.60;56.26;100440.19;4382113;32;33807;-85
2021/12/13 02:09:18;;;;;;;12.13;6.62;;;;;;;3.01;55.43;100438.22;4391240;32;31878;-84
2021/12/13 02:11:49;;;;;;;13.10;6.82;;;;;;;2.84;55.61;100445.19;4382131;32;32097;-84
2021/12/13 02:14:24;;;;;;;12.77;6.25;;;;;;;2.67;56.26;100440.44;4395197;32;34681;-84
2021/12/13 02:19:41;;;;;;;14.68;6.57;;;;;;;2.71;56.19;100460.84;4400717;32;34108;-84
2021/12/13 02:22:29;;;;;;;13.43;6.57;;;;;;;2.66;56.12;100455.84;4389627;32;34584;-84
2021/12/13 02:25:20;;;;;;;15.02;7.05;;;;;;;2.76;55.76;100456.72;4389937;32;35582;-85
2021/12/13 02:28:10;;;;;;;14.52;6.78;;;;;;;2.95;55.26;100462.19;4389427;32;33352;-84
2021/12/13 02:30:41;;;;;;;14.40;7.32;;;;;;;2.87;55.64;100453.03;4380980;32;33616;-84
2021/12/13 02:33:16;;;;;;;12.10;6.72;;;;;;;2.94;55.22;100457.75;4378765;32;32566;-85
2021/12/13 02:35:50;;;;;;;14.60;6.80;;;;;;;2.91;55.36;100455.31;4393249;32;34470;-84
2021/12/13 02:38:21;;;;;;;15.60;6.85;;;;;;;3.06;55.00;100455.78;4387752;32;32547;-86
2021/12/13 02:40:53;;;;;;;15.50;7.03;;;;;;;2.92;55.21;100456.19;4377236;32;31736;-86
2021/12/13 02:43:27;;;;;;;17.95;7.32;;;;;;;2.80;55.56;100466.28;4373953;32;34949;-84
2021/12/13 02:45:58;;;;;;;17.77;7.40;;;;;;;2.83;55.68;100465.16;4351113;32;33322;-84
2021/12/13 02:48:37;;;;;;;13.60;6.30;;;;;;;2.86;55.41;100460.31;4383464;32;33867;-85
2021/12/13 02:51:18;;;;;;;14.20;7.12;;;;;;;2.91;55.02;100458.03;4368628;32;32997;-85
2021/12/13 02:54:21;;;;;;;10.75;6.18;;;;;;;3.13;54.65;100459.62;4381301;32;33025;-85
2021/12/13 02:56:56;;;;;;;14.80;7.37;;;;;;;3.18;54.61;100456.50;4357714;32;32918;-84
2021/12/13 02:59:26;;;;;;;14.82;7.60;;;;;;;3.07;54.88;100457.47;4376182;32;33464;-85
2021/12/13 03:02:22;;;;;;;14.85;7.72;;;;;;;2.82;55.21;100458.88;4361036;32;33238;-85
2021/12/13 03:04:56;;;;;;;16.08;7.05;;;;;;;2.89;55.32;100460.03;4377702;32;33636;-85
2021/12/13 03:07:35;;;;;;;17.52;7.75;;;;;;;2.90;55.30;100459.03;4377454;32;34598;-84
2021/12/13 03:10:14;;;;;;;13.43;6.65;;;;;;;2.80;55.61;100463.59;4349558;32;32084;-85
2021/12/13 03:12:42;;;;;;;14.63;6.70;;;;;;;3.06;55.15;100454.91;4377456;32;33092;-84
2021/12/13 03:15:14;;;;;;;13.32;6.55;;;;;;;3.10;54.78;100446.34;4352803;32;32192;-85
2021/12/13 03:17:50;;;;;;;14.45;6.78;;;;;;;3.07;54.92;100448.50;4377363;32;33867;-85
2021/12/13 03:20:42;;;;;;;13.80;6.82;;;;;;;3.19;54.64;100448.22;4377250;32;34044;-85
2021/12/13 03:23:18;;;;;;;14.13;7.00;;;;;;;3.15;54.60;100440.50;4362167;32;33314;-85
2021/12/13 03:25:45;;;;;;;14.65;6.75;;;;;;;2.92;55.05;100454.34;4352703;32;32149;-85
2021/12/13 03:28:37;;;;;;;14.95;7.03;;;;;;;3.01;55.14;100447.19;4377518;32;34286;-85
2021/12/13 03:31:09;;;;;;;15.05;7.32;;;;;;;2.88;55.48;100443.91;4374081;32;32220;-85
2021/12/13 03:33:50;;;;;;;12.27;6.75;;;;;;;3.13;55.17;100440.66;4377349;32;33986;-85
2021/12/13 03:36:22;;;;;;;16.55;7.53;;;;;;;3.39;54.48;100440.87;4375212;32;33208;-86
2021/12/13 03:38:54;;;;;;;14.55;7.72;;;;;;;3.01;55.32;100449.06;4372633;32;34500;-85
2021/12/13 03:41:24;;;;;;;14.25;7.53;;;;;;;3.16;54.62;100443.06;4377369;32;32960;-85
2021/12/13 03:43:52;;;;;;;15.30;6.97;;;;;;;3.09;54.86;100451.91;4372519;32;33119;-85
2021/12/13 03:46:24;;;;;;;13.15;7.15;;;;;;;3.07;54.95;100451.19;4377064;32;34357;-84
2021/12/13 03:48:54;;;;;;;16.90;7.15;;;;;;;2.86;55.60;100454.88;4360511;32;35258;-85
2021/12/13 03:51:27;;;;;;;19.20;8.20;;;;;;;2.62;56.44;100457.97;4377157;32;34188;-84
2021/12/13 03:53:57;;;;;;;12.15;7.07;;;;;;;2.78;56.14;100459.31;4360334;32;33196;-85
2021/12/13 03:56:29;;;;;;;18.02;8.43;;;;;;;2.93;55.76;100466.88;4377096;32;33777;-85
2021/12/13 03:59:04;;;;;;;17.17;8.20;;;;;;;2.91;55.83;100477.00;4352781;32;35153;-84
2021/12/13 04:01:44;;;;;;;17.70;8.47;;;;;;;2.91;55.95;100463.47;4376425;32;34097;-85
2021/12/13 04:04:21;;;;;;;15.77;8.10;;;;;;;3.05;55.37;100464.91;4362166;32;33914;-85
2021/12/13 04:06:52;;;;;;;;;;;;;;;2.65;56.41;100468.53;4359139;32;33286;-84
2021/12/13 04:09:26;;;;;;;19.00;7.07;;;;;;;2.75;56.43;100468.56;4352874;32;33244;-85
2021/12/13 04:11:57;;;;;;;15.43;8.20;;;;;;;3.05;55.68;100466.75;4372597;32;32992;-84
2021/12/13 04:14:31;;;;;;;18.37;8.55;;;;;;;2.87;56.04;100474.72;4377087;32;32255;-85
2021/12/13 04:17:42;;;;;;;14.20;8.07;;;;;;;2.79;56.50;100480.84;4352767;32;32364;-85
2021/12/13 04:20:20;;;;;;;18.48;9.00;;;;;;;2.94;56.16;100474.03;4372254;32;34282;-85
2021/12/13 04:22:52;;;;;;;16.15;8.55;;;;;;;2.53;57.34;100469.69;4378305;32;34038;-85
2021/12/13 04:25:29;;;;;;;15.07;8.00;;;;;;;2.87;56.49;100475.59;4362926;32;32714;-84
2021/12/13 04:28:02;;;;;;;16.83;7.78;;;;;;;2.82;56.61;100472.44;4360225;32;34565;-85
2021/12/13 04:30:41;;;;;;;15.67;8.03;;;;;;;2.91;56.44;100468.88;4364549;32;33013;-85
2021/12/13 04:33:22;;;;;;;18.33;8.60;;;;;;;3.01;56.17;100477.03;4361847;32;34708;-84
2021/12/13 04:35:54;;;;;;;18.77;8.75;;;;;;;2.84;56.55;100481.28;4376969;32;33468;-84
2021/12/13 04:38:27;;;;;;;19.67;8.88;;;;;;;2.86;56.53;100487.41;4364696;32;33465;-85
2021/12/13 04:40:55;;;;;;;18.67;8.85;;;;;;;2.67;57.07;100478.38;4360163;32;35215;-85
2021/12/13 04:43:23;;;;;;;18.97;8.90;;;;;;;2.70;57.28;100473.56;4364136;32;35637;-84
2021/12/13 04:45:59;;;;;;;15.88;8.40;;;;;;;2.84;57.10;100475.00;4347396;32;31329;-84
2021/12/13 04:48:34;;;;;;;16.58;8.50;;;;;;;2.85;56.81;100476.72;4364042;32;33052;-84
2021/12/13 04:51:11;;;;;;;18.33;9.20;;;;;;;2.98;56.58;100480.87;4351102;32;34249;-85
2021/12/13 04:53:49;;;;;;;17.10;8.97;;;;;;;2.98;56.61;100482.72;4370589;32;32482;-85
2021/12/13 04:56:22;;;;;;;20.10;9.82;;;;;;;3.00;56.54;100474.47;4351965;32;34278;-84
2021/12/13 04:58:52;;;;;;;18.33;9.43;;;;;;;2.76;57.18;100485.69;4359329;32;34439;-85
2021/12/13 05:01:22;;;;;;;20.05;9.48;;;;;;;2.85;57.23;100487.56;4376532;32;34757;-84
2021/12/13 05:03:55;;;;;;;16.25;8.82;;;;;;;2.78;57.38;100484.56;4347455;32;32463;-85
2021/12/13 05:06:29;;;;;;;17.77;9.52;;;;;;;2.62;58.23;100486.94;4376788;32;34175;-85
2021/12/13 05:08:59;;;;;;;19.90;9.82;;;;;;;2.94;57.18;100486.72;4360127;32;33796;-85
2021/12/13 05:11:29;;;;;;;18.83;9.25;;;;;;;3.00;57.27;100494.28;4376447;32;34291;-85
2021/12/13 05:13:58;;;;;;;17.25;9.60;;;;;;;3.03;57.06;100502.16;4359878;32;33992;-85
2021/12/13 05:16:38;;;;;;;23.80;10.38;;;;;;;2.81;57.84;100499.69;4376835;32;33391;-85
2021/12/13 05:19:12;;;;;;;19.27;9.65;;;;;;;2.92;57.54;100497.72;4363270;32;33200;-85
2021/12/13 05:21:50;;;;;;;20.05;10.85;;;;;;;2.89;57.86;100502.56;4366147;32;32438;-88
2021/12/13 05:24:26;;;;;;;22.97;10.27;;;;;;;2.90;57.82;100506.97;4365899;32;33284;-84
2021/12/13 05:27:04;;;;;;;19.23;9.98;;;;;;;2.87;57.73;100512.69;4361846;32;31976;-86
2021/12/13 05:29:32;;;;;;;22.15;11.00;;;;;;;2.82;57.96;100509.53;4390771;32;34086;-85
2021/12/13 05:32:21;;;;;;;19.58;10.30;;;;;;;3.07;69.05;100519.84;4362477;32;32879;-85
2021/12/13 05:34:56;;;;;;;22.17;11.13;;;;;;;3.13;62.69;100516.56;4378514;32;34120;-81
2021/12/13 05:37:28;;;;;;;18.87;10.52;;;;;;;3.27;59.52;100513.41;4366100;32;31803;-85
2021/12/13 05:40:04;;;;;;;22.15;10.90;;;;;;;3.17;59.19;100519.88;4362125;32;33937;-85
2021/12/13 05:42:49;;;;;;;22.65;10.50;;;;;;;3.19;58.05;100517.88;4353706;32;34230;-85
2021/12/13 05:45:30;;;;;;;19.85;10.15;;;;;;;3.25;57.66;100522.72;4376500;32;34667;-85
2021/12/13 05:48:01;;;;;;;19.27;10.20;;;;;;;3.26;57.35;100527.97;4361934;32;31783;-85
2021/12/13 05:50:39;;;;;;;22.77;10.57;;;;;;;3.08;58.68;100518.84;4373837;32;32964;-84
2021/12/13 05:53:24;;;;;;;22.50;11.80;;;;;;;3.11;58.36;100524.00;4390104;32;34373;-85
2021/12/13 05:56:02;;;;;;;24.48;11.45;;;;;;;3.09;58.11;100533.28;4392971;32;33461;-84
2021/12/13 05:58:55;;;;;;;20.62;10.57;;;;;;;3.04;58.39;100522.84;4393295;32;34033;-86
2021/12/13 06:01:32;;;;;;;22.27;11.40;;;;;;;3.01;58.63;100522.25;4377122;32;34597;-84
2021/12/13 06:04:06;;;;;;;21.33;11.27;;;;;;;3.20;58.18;100520.44;4376543;32;34165;-83
2021/12/13 06:06:52;;;;;;;20.12;11.20;;;;;;;3.13;58.46;100535.56;4379835;32;32565;-84
2021/12/13 06:09:48;;;;;;;19.67;11.43;;;;;;;3.12;58.67;100530.28;4392087;32;31778;-84
2021/12/13 06:12:29;;;;;;;22.52;11.15;;;;;;;2.96;59.28;100530.81;4369477;32;32540;-84
2021/12/13 06:15:24;;;;;;;21.75;11.82;;;;;;;2.88;59.58;100536.94;4380820;32;33965;-84
2021/12/13 06:17:57;;;;;;;23.67;11.88;;;;;;;2.61;60.17;100539.41;4390508;32;34396;-82
2021/12/13 06:20:30;;;;;;;22.07;10.60;;;;;;;2.79;59.93;100536.91;4371389;32;33048;-84
2021/12/13 06:23:16;;;;;;;39.42;16.05;;;;;;;3.08;58.95;100535.13;4398629;32;34366;-84
2021/12/13 06:25:49;;;;;;;25.15;12.50;;;;;;;3.88;75.62;100552.97;4390122;32;34380;-84
2021/12/13 06:28:23;;;;;;;65.28;20.70;;;;;;;3.96;71.32;100550.38;4379964;32;33781;-81
2021/12/13 06:31:06;;;;;;;49.67;19.58;;;;;;;5.08;86.13;100549.34;4387761;32;31738;-81
2021/12/13 06:33:57;;;;;;;27.75;15.40;;;;;;;6.53;88.87;100545.28;4392659;32;34412;-83
2021/12/13 06:36:39;;;;;;;23.55;12.68;;;;;;;6.47;73.48;100543.22;4391289;32;35170;-85
2021/12/13 06:39:30;;;;;;;24.12;12.00;;;;;;;5.80;67.90;100545.63;4389665;32;34523;-84
2021/12/13 06:42:07;;;;;;;25.60;13.15;;;;;;;5.33;65.13;100552.31;4373620;32;33342;-83
2021/12/13 06:44:36;;;;;;;;;;;;;;;4.87;61.79;100557.78;4380347;32;33075;-84
2021/12/13 06:47:20;;;;;;;23.62;12.60;;;;;;;4.72;60.04;100556.56;4388873;32;34504;-84
2021/12/13 06:49:52;;;;;;;22.62;12.15;;;;;;;4.70;59.68;100563.16;4379823;32;35175;-83
2021/12/13 06:52:32;;;;;;;25.25;13.13;;;;;;;4.37;58.61;100567.28;4380119;32;34254;-84
2021/12/13 06:55:11;;;;;;;22.98;12.57;;;;;;;4.07;58.09;100566.50;4376332;32;33506;-84
2021/12/13 06:57:46;;;;;;;25.95;13.05;;;;;;;3.95;57.93;100567.66;4392393;32;35094;-86
2021/12/13 07:00:20;;;;;;;26.25;12.10;;;;;;;3.95;58.14;100568.53;4393564;32;34705;-84
2021/12/13 07:02:57;;;;;;;23.60;12.05;;;;;;;3.98;57.99;100564.66;4375010;32;31983;-87
2021/12/13 07:05:35;;;;;;;24.27;10.88;;;;;;;3.96;57.98;100577.53;4379976;32;33196;-86
2021/12/13 07:08:19;;;;;;;26.65;11.65;;;;;;;3.71;58.48;100575.41;4388830;32;32689;-84
2021/12/13 07:10:57;;;;;;;23.98;13.60;;;;;;;3.95;70.06;100576.66;4379939;32;32524;-84
2021/12/13 07:13:52;;;;;;;25.48;13.77;;;;;;;3.75;64.31;100569.56;4379952;32;34406;-85
2021/12/13 07:16:25;;;;;;;23.50;12.60;;;;;;;4.12;61.00;100566.91;4390541;32;33430;-85
2021/12/13 07:19:11;;;;;;;22.23;12.77;;;;;;;4.06;59.37;100572.94;4367600;32;32737;-86
2021/12/13 07:21:59;;;;;;;23.27;12.70;;;;;;;3.83;59.19;100571.56;4374192;32;34697;-85
2021/12/13 07:24:30;;;;;;;25.58;13.07;;;;;;;3.82;59.15;100583.44;4369016;32;31791;-84
2021/12/13 07:27:06;;;;;;;23.98;12.85;;;;;;;3.81;58.97;100587.13;4388454;32;33666;-85
2021/12/13 07:29:36;;;;;;;29.70;13.35;;;;;;;3.74;59.02;100583.28;4392240;32;34545;-84
2021/12/13 07:32:25;;;;;;;27.23;13.90;;;;;;;3.80;59.05;100580.00;4376501;32;32377;-84
2021/12/13 07:35:12;;;;;;;30.52;15.65;;;;;;;3.80;58.85;100577.28;4380100;32;32967;-85
2021/12/13 07:37:55;;;;;;;26.77;13.48;;;;;;;3.98;58.43;100583.66;4379937;32;32682;-84
2021/12/13 07:40:51;;;;;;;25.37;12.65;;;;;;;3.84;58.74;100576.84;4379496;32;34352;-85
2021/12/13 07:43:31;;;;;;;24.30;13.18;;;;;;;3.80;59.14;100593.56;4377810;32;32627;-83
2021/12/13 07:46:25;;;;;;;25.20;12.40;;;;;;;3.78;59.29;100590.13;4373325;32;33278;-85
2021/12/13 07:49:20;;;;;;;26.27;13.50;;;;;;;3.66;59.57;100585.84;4366939;32;33284;-84
2021/12/13 07:51:54;;;;;;;24.77;13.13;;;;;;;3.71;59.46;100600.72;4380586;32;32926;-84
2021/12/13 07:54:24;;;;;;;27.37;13.15;;;;;;;3.74;59.79;100599.56;4379242;32;33857;-85
2021/12/13 07:56:57;;;;;;;26.45;13.82;;;;;;;3.54;60.52;100606.84;4375071;32;34170;-83
2021/12/13 07:59:29;;;;;;;22.27;12.93;;;;;;;3.43;61.14;100599.69;4369452;32;34519;-84
2021/12/13 08:02:13;;;;;;;29.33;13.77;;;;;;;3.54;61.03;100602.28;4375186;32;35166;-85
2021/12/13 08:04:41;;;;;;;25.52;13.48;;;;;;;3.60;60.87;100604.41;4379445;32;34221;-84
2021/12/13 08:07:16;;;;;;;26.73;13.55;;;;;;;3.52;61.30;100615.12;4381290;32;33519;-84
2021/12/13 08:09:47;;;;;;;28.73;14.50;;;;;;;3.62;61.75;100612.41;4364457;32;33721;-84
2021/12/13 08:12:27;;;;;;;30.67;14.10;;;;;;;3.55;62.01;100614.84;4352244;32;33537;-84
2021/12/13 08:15:17;;;;;;;23.65;13.57;;;;;;;3.28;62.60;100610.09;4374902;32;32532;-84
2021/12/13 08:17:56;;;;;;;34.72;13.27;;;;;;;3.79;61.29;100602.72;4366538;32;34039;-85
2021/12/13 08:20:25;;;;;;;21.92;12.70;;;;;;;3.82;61.18;100621.44;4373876;32;34042;-84
2021/12/13 08:22:54;;;;;;;27.05;13.13;;;;;;;3.75;61.04;100623.00;4372018;32;34402;-84
2021/12/13 08:25:29;;;;;;;25.77;12.48;;;;;;;3.64;61.56;100622.12;4364440;32;33816;-84
2021/12/13 08:28:06;;;;;;;25.05;13.13;;;;;;;3.59;62.00;100627.13;4372871;32;33421;-87
2021/12/13 08:30:56;;;;;;;26.48;12.82;;;;;;;3.90;61.41;100627.84;4382583;32;33816;-84
2021/12/13 08:33:44;;;;;;;24.73;12.05;;;;;;;4.08;62.62;100629.84;4368031;32;33097;-84
2021/12/13 08:36:17;;;;;;;25.17;11.90;;;;;;;3.27;62.67;100634.63;4364409;32;33520;-83
2021/12/13 08:38:45;;;;;;;33.00;14.07;;;;;;;3.64;62.18;100630.28;4372674;32;33209;-83
2021/12/13 08:41:15;;;;;;;24.23;11.98;;;;;;;3.92;61.29;100627.69;4374453;32;33822;-84
2021/12/13 08:44:12;;;;;;;23.90;12.63;;;;;;;3.94;61.24;100634.69;4373979;32;35056;-83
2021/12/13 08:46:56;;;;;;;23.95;12.43;;;;;;;3.78;61.57;100629.00;4358483;32;32370;-83
2021/12/13 08:49:30;;;;;;;24.83;12.63;;;;;;;3.72;61.97;100639.56;4364101;32;32989;-83
2021/12/13 08:52:26;;;;;;;30.50;15.43;;;;;;;3.84;61.69;100639.28;4373079;32;32231;-84
2021/12/13 08:55:33;;;;;;;24.83;13.20;;;;;;;3.87;61.57;100644.44;4378190;32;34483;-84
2021/12/13 08:58:06;;;;;;;24.55;12.88;;;;;;;3.91;61.32;100642.28;4379699;32;34672;-85
2021/12/13 09:00:43;;;;;;;25.23;12.80;;;;;;;4.05;60.87;100638.28;4393796;32;34212;-83
2021/12/13 09:03:40;;;;;;;23.87;11.27;;;;;;;4.19;60.79;100644.13;4378244;32;33262;-84
2021/12/13 09:06:11;;;;;;;22.73;12.05;;;;;;;4.45;59.67;100638.94;4380915;32;33673;-83
2021/12/13 09:08:57;;;;;;;21.02;11.82;;;;;;;4.03;60.33;100640.28;4381072;32;32290;-83
2021/12/13 09:11:37;;;;;;;22.83;11.48;;;;;;;4.01;60.62;100643.13;4380905;32;31804;-84
2021/12/13 09:14:41;;;;;;;27.20;12.18;;;;;;;4.58;59.47;100630.44;4390024;32;34073;-84
2021/12/13 09:17:26;;;;;;;23.70;11.57;;;;;;;4.49;59.47;100639.50;4387468;32;34281;-83
2021/12/13 09:20:16;;;;;;;24.30;12.55;;;;;;;4.36;59.72;100636.25;4368752;32;32218;-83
2021/12/13 09:22:50;;;;;;;21.50;10.30;;;;;;;4.16;60.55;100643.56;4405996;32;34092;-84
2021/12/13 09:25:36;;;;;;;23.80;11.00;;;;;;;3.64;61.06;100638.41;4380908;32;32892;-83
2021/12/13 09:28:12;;;;;;;21.48;11.05;;;;;;;4.03;60.68;100643.84;4389589;32;35275;-84
2021/12/13 09:30:59;;;;;;;27.20;11.48;;;;;;;4.42;59.65;100639.22;4381376;32;33914;-84
2021/12/13 09:33:29;;;;;;;27.10;11.85;;;;;;;4.12;59.82;100640.25;4368977;32;32884;-84
2021/12/13 09:36:18;;;;;;;23.77;11.35;;;;;;;4.25;59.78;100632.69;4390303;32;33991;-83
2021/12/13 09:39:04;;;;;;;19.75;10.45;;;;;;;4.57;58.68;100634.16;4398564;32;33793;-83
2021/12/13 09:41:46;;;;;;;19.95;11.55;;;;;;;4.11;59.77;100624.09;4398443;32;34217;-83
2021/12/13 09:44:29;;;;;;;24.90;11.57;;;;;;;4.06;59.48;100632.69;4384310;32;32649;-83
2021/12/13 09:47:07;;;;;;;21.95;10.77;;;;;;;4.03;60.18;100624.84;4381801;32;32089;-85
2021/12/13 09:49:45;;;;;;;23.15;11.38;;;;;;;4.33;59.35;100622.94;4381389;32;33956;-83
2021/12/13 09:52:25;;;;;;;22.73;10.73;;;;;;;4.13;60.07;100620.25;4378296;32;33695;-84
2021/12/13 09:55:15;;;;;;;21.45;10.32;;;;;;;4.32;60.06;100623.94;4375793;32;33429;-84
2021/12/13 09:57:58;;;;;;;20.88;10.25;;;;;;;4.51;59.50;100621.19;4380585;32;34512;-83
2021/12/13 10:00:40;;;;;;;23.10;10.95;;;;;;;4.34;59.73;100611.94;4392821;32;34566;-84
2021/12/13 10:03:13;;;;;;;69.97;30.50;;;;;;;4.33;59.44;100607.50;4377084;32;33448;-84
2021/12/13 10:05:45;;;;;;;24.75;12.13;;;;;;;4.49;60.23;100612.31;4392778;32;33287;-84
2021/12/13 10:08:18;;;;;;;25.48;12.37;;;;;;;4.56;59.02;100605.25;4380455;32;34302;-84
2021/12/13 10:11:13;;;;;;;25.23;11.60;;;;;;;4.72;58.71;100602.78;4387402;32;35225;-83
2021/12/13 10:13:45;;;;;;;24.35;11.90;;;;;;;4.46;58.72;100610.75;4380225;32;34852;-82
2021/12/13 10:16:18;;;;;;;23.40;11.23;;;;;;;4.56;59.38;100602.53;4392872;32;33265;-83
2021/12/13 10:18:51;;;;;;;24.02;11.57;;;;;;;4.75;58.46;100602.47;4375250;32;33886;-84
2021/12/13 10:21:46;;;;;;;21.67;11.63;;;;;;;5.11;57.48;100598.03;4373790;32;34856;-83
2021/12/13 10:24:24;;;;;;;21.25;11.63;;;;;;;4.52;59.32;100603.88;4360833;32;34711;-83
2021/12/13 10:26:55;;;;;;;23.70;11.75;;;;;;;4.16;61.41;100606.37;4375541;32;33216;-83
2021/12/13 10:29:46;;;;;;;24.95;12.13;;;;;;;4.83;59.36;100604.44;4388153;32;32233;-83
2021/12/13 10:32:24;;;;;;;23.15;12.32;;;;;;;4.94;58.63;100596.97;4370668;32;32753;-83
2021/12/13 10:35:24;;;;;;;40.60;19.45;;;;;;;5.06;58.48;100596.75;4356040;32;32489;-83
2021/12/13 10:37:58;;;;;;;35.88;15.23;;;;;;;5.18;58.92;100592.81;4335306;32;32274;-83
2021/12/13 10:40:49;;;;;;;24.90;13.32;;;;;;;4.86;58.84;100593.28;4365150;32;33163;-84
2021/12/13 10:43:23;;;;;;;24.67;12.43;;;;;;;5.24;57.66;100594.91;4377943;32;35088;-84
2021/12/13 10:46:02;;;;;;;20.17;10.90;;;;;;;4.91;58.25;100597.25;4369951;32;32359;-84
2021/12/13 10:48:32;;;;;;;21.15;10.40;;;;;;;5.09;57.62;100589.16;4374760;32;33296;-84
2021/12/13 10:51:10;;;;;;;23.50;11.32;;;;;;;4.74;57.65;100589.87;4388724;32;33853;-84
2021/12/13 10:53:40;;;;;;;23.77;10.27;;;;;;;5.34;56.09;100582.09;4366771;32;36049;-84
2021/12/13 10:56:28;;;;;;;18.65;9.23;;;;;;;5.31;55.85;100587.84;4365395;32;34877;-82
2021/12/13 10:59:00;;;;;;;18.50;9.23;;;;;;;5.36;55.22;100584.66;4377354;32;33442;-84
2021/12/13 11:01:37;;;;;;;16.08;9.63;;;;;;;5.29;55.07;100578.97;4379862;32;34013;-87
2021/12/13 11:04:08;;;;;;;18.60;9.52;;;;;;;5.76;54.60;100576.06;4386360;32;34438;-84
2021/12/13 11:06:37;;;;;;;20.02;9.40;;;;;;;5.76;54.07;100579.66;4389765;32;33918;-84
2021/12/13 11:09:10;;;;;;;22.23;10.02;;;;;;;5.72;53.82;100578.25;4373844;32;33236;-84
2021/12/13 11:11:45;;;;;;;20.10;10.23;;;;;;;5.76;53.76;100578.78;4364602;32;33623;-83
2021/12/13 11:14:20;;;;;;;20.75;9.30;;;;;;;5.11;55.64;100587.13;4364485;32;35243;-84
2021/12/13 11:16:54;;;;;;;36.53;18.10;;;;;;;5.18;55.51;100579.22;4366833;32;32641;-85
2021/12/13 11:19:32;;;;;;;31.80;17.45;;;;;;;5.19;57.20;100573.63;4369392;32;33217;-84
2021/12/13 11:22:07;;;;;;;26.45;13.13;;;;;;;5.79;55.77;100581.19;4373819;32;33790;-84
2021/12/13 11:24:49;;;;;;;24.10;12.02;;;;;;;5.80;55.36;100577.47;4379653;32;34549;-86
2021/12/13 11:27:22;;;;;;;25.58;12.02;;;;;;;5.80;55.40;100582.91;4374446;32;32462;-84
2021/12/13 11:29:51;;;;;;;23.27;11.98;;;;;;;5.71;55.24;100575.69;4361380;32;31713;-85
2021/12/13 11:32:38;;;;;;;25.77;12.65;;;;;;;5.56;56.29;100581.66;4378859;32;34009;-85
2021/12/13 11:35:11;;;;;;;27.27;12.85;;;;;;;5.99;55.22;100577.28;4375009;32;35119;-86
2021/12/13 11:37:48;;;;;;;24.75;13.52;;;;;;;5.79;57.02;100578.47;4377695;32;34168;-85
2021/12/13 11:40:47;;;;;;;20.62;11.68;;;;;;;6.01;55.29;100575.28;4365698;32;32640;-85
2021/12/13 11:43:53;;;;;;;22.58;12.57;;;;;;;6.09;55.07;100575.34;4375963;32;33774;-84
2021/12/13 11:46:55;;;;;;;23.38;12.35;;;;;;;5.82;55.71;100570.00;4376089;32;35373;-84
2021/12/13 11:50:00;;;;;;;25.00;13.33;;;;;;;6.01;55.82;100572.53;4354574;32;1009194;-85
2021/12/13 11:52:49;;;;;;;28.42;13.50;;;;;;;6.19;55.16;100575.25;4389925;32;34438;-85
2021/12/13 11:55:55;;;;;;;39.35;20.10;;;;;;;6.19;54.46;100567.06;4377190;32;32985;-85
2021/12/13 11:58:47;;;;;;;29.15;14.23;;;;;;;6.30;54.73;100568.69;4330795;32;34210;-83
2021/12/13 12:01:47;;;;;;;28.83;13.20;;;;;;;5.56;56.16;100565.31;4391576;32;34616;-84
2021/12/13 12:04:52;;;;;;;43.33;20.42;;;;;;;5.97;55.68;100564.84;4388645;32;33327;-85
2021/12/13 12:08:02;;;;;;;28.33;14.43;;;;;;;6.10;55.83;100562.56;4391374;32;34304;-85
2021/12/13 12:10:57;;;;;;;30.08;13.02;;;;;;;6.01;55.79;100561.66;4391388;32;32895;-85
2021/12/13 12:14:03;;;;;;;22.42;12.85;;;;;;;5.97;55.60;100562.97;4378828;32;33877;-85
2021/12/13 12:16:52;;;;;;;26.00;13.35;;;;;;;5.77;56.56;100561.44;4378915;32;32264;-84
2021/12/13 12:19:32;;;;;;;23.95;12.00;;;;;;;6.09;56.06;100567.16;4390474;32;33438;-85
2021/12/13 12:22:06;;;;;;;21.85;11.27;;;;;;;6.01;55.62;100564.38;4387834;32;35121;-85
2021/12/13 12:24:40;;;;;;;27.42;11.57;;;;;;;5.79;55.63;100570.31;4379428;32;32173;-85